sensor_id;sensor_type;location;lat;lon;timestamp;temperature;humidity
2621;DHT22;1320;48.128;11.592;2023-04-29T00:02:18;12.60;99.90
2621;DHT22;1320;48.128;11.592;2023-04-29T00:04:44;12.60;99.90
2621;DHT22;1320;48.128;11.592;2023-04-29T00:07:09;12.60;99.90
2621;DHT22;1320;48.128;11.592;2023-04-29T00:09:39;12.70;99.90
2621;DHT22;1320;48.128;11.592;2023-04-29T00:12:05;12.70;99.90
2621;DHT22;1320;48.128;11.592;2023-04-29T00:14:31;12.70;99.90
2621;DHT22;1320;48.128;11.592;2023-04-29T00:16:56;12.70;99.90
2621;DHT22;1320;48.128;11.592;2023-04-29T00:19:22;12.70;99.90
2621;DHT22;1320;48.128;11.592;2023-04-29T00:21:48;12.60;99.90
2621;DHT22;1320;48.128;11.592;2023-04-29T00:24:13;12.60;99.90
2621;DHT22;1320;48.128;11.592;2023-04-29T00:26:39;12.60;99.90
2621;DHT22;1320;48.128;11.592;2023-04-29T00:29:05;12.60;99.90
2621;DHT22;1320;48.128;11.592;2023-04-29T00:31:31;12.60;99.90
2621;DHT22;1320;48.128;11.592;2023-04-29T00:33:57;12.60;99.90
2621;DHT22;1320;48.128;11.592;2023-04-29T00:36:23;12.60;99.90
2621;DHT22;1320;48.128;11.592;2023-04-29T00:38:48;12.60;99.90
2621;DHT22;1320;48.128;11.592;2023-04-29T00:41:14;12.70;99.90
2621;DHT22;1320;48.128;11.592;2023-04-29T00:43:40;12.70;99.90
2621;DHT22;1320;48.128;11.592;2023-04-29T00:46:05;12.80;99.90
2621;DHT22;1320;48.128;11.592;2023-04-29T00:48:31;12.80;99.90
2621;DHT22;1320;48.128;11.592;2023-04-29T00:50:58;12.80;99.90
2621;DHT22;1320;48.128;11.592;2023-04-29T00:53:23;12.90;99.90
2621;DHT22;1320;48.128;11.592;2023-04-29T00:55:50;13.00;99.90
2621;DHT22;1320;48.128;11.592;2023-04-29T00:58:17;13.00;99.90
2621;DHT22;1320;48.128;11.592;2023-04-29T01:00:43;13.00;99.90
2621;DHT22;1320;48.128;11.592;2023-04-29T01:03:12;13.00;99.90
2621;DHT22;1320;48.128;11.592;2023-04-29T01:05:38;13.00;99.90
2621;DHT22;1320;48.128;11.592;2023-04-29T01:13:30;13.10;99.90
2621;DHT22;1320;48.128;11.592;2023-04-29T01:16:01;13.10;99.90
2621;DHT22;1320;48.128;11.592;2023-04-29T01:18:36;13.10;99.90
2621;DHT22;1320;48.128;11.592;2023-04-29T01:21:03;13.10;99.90
2621;DHT22;1320;48.128;11.592;2023-04-29T01:23:29;13.10;99.90
2621;DHT22;1320;48.128;11.592;2023-04-29T01:25:56;13.10;99.90
2621;DHT22;1320;48.128;11.592;2023-04-29T01:29:01;13.10;99.90
2621;DHT22;1320;48.128;11.592;2023-04-29T01:44:34;13.10;99.90
2621;DHT22;1320;48.128;11.592;2023-04-29T01:47:01;13.10;99.90
2621;DHT22;1320;48.128;11.592;2023-04-29T01:49:28;13.10;99.90
2621;DHT22;1320;48.128;11.592;2023-04-29T01:51:54;13.10;99.90
2621;DHT22;1320;48.128;11.592;2023-04-29T01:54:20;13.10;99.90
2621;DHT22;1320;48.128;11.592;2023-04-29T01:56:48;13.10;99.90
2621;DHT22;1320;48.128;11.592;2023-04-29T01:59:16;13.10;99.90
2621;DHT22;1320;48.128;11.592;2023-04-29T02:01:41;13.10;99.90
2621;DHT22;1320;48.128;11.592;2023-04-29T02:04:07;13.10;99.90
2621;DHT22;1320;48.128;11.592;2023-04-29T02:06:33;13.10;99.90
2621;DHT22;1320;48.128;11.592;2023-04-29T02:08:58;13.10;99.90
2621;DHT22;1320;48.128;11.592;2023-04-29T02:11:24;13.20;99.90
2621;DHT22;1320;48.128;11.592;2023-04-29T02:13:49;13.20;99.90
2621;DHT22;1320;48.128;11.592;2023-04-29T02:16:15;13.10;99.90
2621;DHT22;1320;48.128;11.592;2023-04-29T02:18:41;13.20;99.90
2621;DHT22;1320;48.128;11.592;2023-04-29T02:21:07;13.10;99.90
2621;DHT22;1320;48.128;11.592;2023-04-29T02:23:34;13.20;99.90
2621;DHT22;1320;48.128;11.592;2023-04-29T02:26:00;13.10;99.90
2621;DHT22;1320;48.128;11.592;2023-04-29T02:28:26;13.20;99.90
2621;DHT22;1320;48.128;11.592;2023-04-29T02:30:51;13.20;99.90
2621;DHT22;1320;48.128;11.592;2023-04-29T02:33:17;13.20;99.90
2621;DHT22;1320;48.128;11.592;2023-04-29T02:35:44;13.20;99.90
2621;DHT22;1320;48.128;11.592;2023-04-29T02:38:09;13.30;99.90
2621;DHT22;1320;48.128;11.592;2023-04-29T02:40:46;13.30;99.90
2621;DHT22;1320;48.128;11.592;2023-04-29T02:43:12;13.20;99.90
2621;DHT22;1320;48.128;11.592;2023-04-29T02:45:38;13.30;99.90
2621;DHT22;1320;48.128;11.592;2023-04-29T02:48:05;13.30;99.90
2621;DHT22;1320;48.128;11.592;2023-04-29T02:50:31;13.30;99.90
2621;DHT22;1320;48.128;11.592;2023-04-29T02:52:57;13.20;99.90
2621;DHT22;1320;48.128;11.592;2023-04-29T02:55:23;13.20;99.90
2621;DHT22;1320;48.128;11.592;2023-04-29T02:57:48;13.20;99.90
2621;DHT22;1320;48.128;11.592;2023-04-29T03:00:14;13.20;99.90
2621;DHT22;1320;48.128;11.592;2023-04-29T03:02:40;13.20;99.90
2621;DHT22;1320;48.128;11.592;2023-04-29T03:05:06;13.30;99.90
2621;DHT22;1320;48.128;11.592;2023-04-29T03:07:31;13.30;99.90
2621;DHT22;1320;48.128;11.592;2023-04-29T03:09:57;13.30;99.90
2621;DHT22;1320;48.128;11.592;2023-04-29T03:12:23;13.30;99.90
2621;DHT22;1320;48.128;11.592;2023-04-29T03:14:49;13.40;99.90
2621;DHT22;1320;48.128;11.592;2023-04-29T03:17:14;13.40;99.90
2621;DHT22;1320;48.128;11.592;2023-04-29T03:19:40;13.40;99.90
2621;DHT22;1320;48.128;11.592;2023-04-29T03:22:06;13.40;99.90
2621;DHT22;1320;48.128;11.592;2023-04-29T03:24:36;13.50;99.90
2621;DHT22;1320;48.128;11.592;2023-04-29T03:27:02;13.50;99.90
2621;DHT22;1320;48.128;11.592;2023-04-29T03:29:29;13.50;99.90
2621;DHT22;1320;48.128;11.592;2023-04-29T03:31:55;13.60;99.90
2621;DHT22;1320;48.128;11.592;2023-04-29T03:34:22;13.60;99.90
2621;DHT22;1320;48.128;11.592;2023-04-29T03:36:48;13.60;99.90
2621;DHT22;1320;48.128;11.592;2023-04-29T03:39:13;13.60;99.90
2621;DHT22;1320;48.128;11.592;2023-04-29T03:41:39;13.60;99.90
2621;DHT22;1320;48.128;11.592;2023-04-29T03:44:05;13.60;99.90
2621;DHT22;1320;48.128;11.592;2023-04-29T03:46:30;13.60;99.90
2621;DHT22;1320;48.128;11.592;2023-04-29T03:48:56;13.60;99.90
2621;DHT22;1320;48.128;11.592;2023-04-29T03:51:23;13.60;99.90
2621;DHT22;1320;48.128;11.592;2023-04-29T03:53:49;13.60;99.90
2621;DHT22;1320;48.128;11.592;2023-04-29T03:56:16;13.60;99.90
2621;DHT22;1320;48.128;11.592;2023-04-29T03:58:42;13.60;99.90
2621;DHT22;1320;48.128;11.592;2023-04-29T04:01:07;13.60;99.90
2621;DHT22;1320;48.128;11.592;2023-04-29T04:03:33;13.50;99.90
2621;DHT22;1320;48.128;11.592;2023-04-29T04:05:59;13.60;99.90
2621;DHT22;1320;48.128;11.592;2023-04-29T04:08:25;13.50;99.90
2621;DHT22;1320;48.128;11.592;2023-04-29T04:10:51;13.50;99.90
2621;DHT22;1320;48.128;11.592;2023-04-29T04:13:16;13.50;99.90
2621;DHT22;1320;48.128;11.592;2023-04-29T04:15:47;13.50;99.90
2621;DHT22;1320;48.128;11.592;2023-04-29T04:18:13;13.60;99.90
2621;DHT22;1320;48.128;11.592;2023-04-29T04:20:39;13.60;99.90
2621;DHT22;1320;48.128;11.592;2023-04-29T04:23:04;13.60;99.90
2621;DHT22;1320;48.128;11.592;2023-04-29T04:25:30;13.60;99.90
2621;DHT22;1320;48.128;11.592;2023-04-29T04:27:56;13.60;99.90
2621;DHT22;1320;48.128;11.592;2023-04-29T04:30:22;13.60;99.90
2621;DHT22;1320;48.128;11.592;2023-04-29T04:32:47;13.70;99.90
2621;DHT22;1320;48.128;11.592;2023-04-29T04:35:14;13.70;99.90
2621;DHT22;1320;48.128;11.592;2023-04-29T04:37:39;13.70;99.90
2621;DHT22;1320;48.128;11.592;2023-04-29T04:40:05;13.80;99.90
2621;DHT22;1320;48.128;11.592;2023-04-29T04:42:32;13.80;99.90
2621;DHT22;1320;48.128;11.592;2023-04-29T04:44:58;13.80;99.90
2621;DHT22;1320;48.128;11.592;2023-04-29T04:47:24;13.80;99.90
2621;DHT22;1320;48.128;11.592;2023-04-29T04:49:49;13.80;99.90
2621;DHT22;1320;48.128;11.592;2023-04-29T04:52:21;13.90;99.90
2621;DHT22;1320;48.128;11.592;2023-04-29T04:54:47;13.90;99.90
2621;DHT22;1320;48.128;11.592;2023-04-29T04:57:13;13.90;99.90
2621;DHT22;1320;48.128;11.592;2023-04-29T04:59:38;13.90;99.90
2621;DHT22;1320;48.128;11.592;2023-04-29T05:02:04;13.90;99.90
2621;DHT22;1320;48.128;11.592;2023-04-29T05:04:30;14.00;99.90
2621;DHT22;1320;48.128;11.592;2023-04-29T05:06:55;14.00;99.90
2621;DHT22;1320;48.128;11.592;2023-04-29T05:09:21;14.10;99.90
2621;DHT22;1320;48.128;11.592;2023-04-29T05:11:47;14.10;99.90
2621;DHT22;1320;48.128;11.592;2023-04-29T05:14:12;14.10;99.90
2621;DHT22;1320;48.128;11.592;2023-04-29T05:16:38;14.10;99.90
2621;DHT22;1320;48.128;11.592;2023-04-29T05:19:03;14.20;99.90
2621;DHT22;1320;48.128;11.592;2023-04-29T05:21:29;14.20;99.90
2621;DHT22;1320;48.128;11.592;2023-04-29T05:23:55;14.20;99.90
2621;DHT22;1320;48.128;11.592;2023-04-29T05:26:22;14.30;99.90
2621;DHT22;1320;48.128;11.592;2023-04-29T05:28:47;14.30;99.90
2621;DHT22;1320;48.128;11.592;2023-04-29T05:31:13;14.30;99.90
2621;DHT22;1320;48.128;11.592;2023-04-29T05:33:38;14.40;99.90
2621;DHT22;1320;48.128;11.592;2023-04-29T05:36:05;14.50;99.90
2621;DHT22;1320;48.128;11.592;2023-04-29T05:38:31;14.60;99.90
2621;DHT22;1320;48.128;11.592;2023-04-29T05:40:57;14.70;99.90
2621;DHT22;1320;48.128;11.592;2023-04-29T05:43:23;14.70;99.90
2621;DHT22;1320;48.128;11.592;2023-04-29T05:45:48;14.80;99.90
2621;DHT22;1320;48.128;11.592;2023-04-29T05:48:14;14.80;99.90
2621;DHT22;1320;48.128;11.592;2023-04-29T05:50:40;14.90;99.90
2621;DHT22;1320;48.128;11.592;2023-04-29T05:53:06;14.90;99.90
2621;DHT22;1320;48.128;11.592;2023-04-29T05:55:32;15.00;99.90
2621;DHT22;1320;48.128;11.592;2023-04-29T05:57:57;15.00;99.90
2621;DHT22;1320;48.128;11.592;2023-04-29T06:00:23;15.10;99.90
2621;DHT22;1320;48.128;11.592;2023-04-29T06:02:49;15.20;99.90
2621;DHT22;1320;48.128;11.592;2023-04-29T06:05:14;15.20;99.90
2621;DHT22;1320;48.128;11.592;2023-04-29T06:07:41;15.30;99.90
2621;DHT22;1320;48.128;11.592;2023-04-29T06:10:07;15.30;99.90
2621;DHT22;1320;48.128;11.592;2023-04-29T06:12:33;15.40;99.90
2621;DHT22;1320;48.128;11.592;2023-04-29T06:14:59;15.40;99.90
2621;DHT22;1320;48.128;11.592;2023-04-29T06:17:24;15.50;99.90
2621;DHT22;1320;48.128;11.592;2023-04-29T06:19:56;15.50;99.90
2621;DHT22;1320;48.128;11.592;2023-04-29T06:22:22;15.50;99.90
2621;DHT22;1320;48.128;11.592;2023-04-29T06:24:47;15.50;99.90
2621;DHT22;1320;48.128;11.592;2023-04-29T06:27:17;15.60;99.90
2621;DHT22;1320;48.128;11.592;2023-04-29T06:29:42;15.60;99.90
2621;DHT22;1320;48.128;11.592;2023-04-29T06:32:08;15.60;99.90
2621;DHT22;1320;48.128;11.592;2023-04-29T06:34:34;15.80;99.90
2621;DHT22;1320;48.128;11.592;2023-04-29T06:37:01;15.90;99.90
2621;DHT22;1320;48.128;11.592;2023-04-29T06:39:27;16.00;99.90
2621;DHT22;1320;48.128;11.592;2023-04-29T06:41:52;16.00;99.90
2621;DHT22;1320;48.128;11.592;2023-04-29T06:44:18;16.10;99.90
2621;DHT22;1320;48.128;11.592;2023-04-29T06:46:44;16.10;99.90
2621;DHT22;1320;48.128;11.592;2023-04-29T06:49:10;16.20;99.90
2621;DHT22;1320;48.128;11.592;2023-04-29T06:51:38;16.20;99.90
2621;DHT22;1320;48.128;11.592;2023-04-29T06:54:04;16.10;99.90
2621;DHT22;1320;48.128;11.592;2023-04-29T06:56:30;16.10;99.90
2621;DHT22;1320;48.128;11.592;2023-04-29T06:58:55;16.20;99.90
2621;DHT22;1320;48.128;11.592;2023-04-29T07:01:21;16.30;99.90
2621;DHT22;1320;48.128;11.592;2023-04-29T07:03:47;16.40;99.90
2621;DHT22;1320;48.128;11.592;2023-04-29T07:06:12;16.40;99.90
2621;DHT22;1320;48.128;11.592;2023-04-29T07:08:38;16.40;99.90
2621;DHT22;1320;48.128;11.592;2023-04-29T07:11:04;16.40;99.90
2621;DHT22;1320;48.128;11.592;2023-04-29T07:13:30;16.30;99.90
2621;DHT22;1320;48.128;11.592;2023-04-29T07:15:56;16.30;99.90
2621;DHT22;1320;48.128;11.592;2023-04-29T07:18:22;16.30;99.90
2621;DHT22;1320;48.128;11.592;2023-04-29T07:20:48;16.30;99.90
2621;DHT22;1320;48.128;11.592;2023-04-29T07:23:15;16.40;99.90
2621;DHT22;1320;48.128;11.592;2023-04-29T07:25:41;16.50;99.90
2621;DHT22;1320;48.128;11.592;2023-04-29T07:28:06;16.60;99.90
2621;DHT22;1320;48.128;11.592;2023-04-29T07:30:35;16.70;99.90
2621;DHT22;1320;48.128;11.592;2023-04-29T07:33:01;16.70;99.90
2621;DHT22;1320;48.128;11.592;2023-04-29T07:35:28;16.80;99.90
2621;DHT22;1320;48.128;11.592;2023-04-29T07:37:54;16.90;99.90
2621;DHT22;1320;48.128;11.592;2023-04-29T07:40:20;16.90;99.90
2621;DHT22;1320;48.128;11.592;2023-04-29T07:42:46;17.00;99.90
2621;DHT22;1320;48.128;11.592;2023-04-29T07:45:11;17.00;99.90
2621;DHT22;1320;48.128;11.592;2023-04-29T07:47:38;17.10;99.90
2621;DHT22;1320;48.128;11.592;2023-04-29T07:50:04;17.20;99.90
2621;DHT22;1320;48.128;11.592;2023-04-29T07:52:30;17.30;99.90
2621;DHT22;1320;48.128;11.592;2023-04-29T07:54:56;17.40;99.90
2621;DHT22;1320;48.128;11.592;2023-04-29T07:57:21;17.60;99.90
2621;DHT22;1320;48.128;11.592;2023-04-29T07:59:53;17.80;99.90
2621;DHT22;1320;48.128;11.592;2023-04-29T08:02:19;18.00;99.90
2621;DHT22;1320;48.128;11.592;2023-04-29T08:04:45;18.20;99.90
2621;DHT22;1320;48.128;11.592;2023-04-29T08:07:11;18.40;99.90
2621;DHT22;1320;48.128;11.592;2023-04-29T08:09:37;18.50;99.90
2621;DHT22;1320;48.128;11.592;2023-04-29T08:12:03;18.60;99.90
2621;DHT22;1320;48.128;11.592;2023-04-29T08:14:29;18.60;99.90
2621;DHT22;1320;48.128;11.592;2023-04-29T08:16:54;18.70;99.90
2621;DHT22;1320;48.128;11.592;2023-04-29T08:19:20;18.90;99.90
2621;DHT22;1320;48.128;11.592;2023-04-29T08:21:46;18.90;99.90
2621;DHT22;1320;48.128;11.592;2023-04-29T08:24:12;18.80;99.90
2621;DHT22;1320;48.128;11.592;2023-04-29T08:26:41;18.80;99.90
2621;DHT22;1320;48.128;11.592;2023-04-29T08:29:07;18.70;99.90
2621;DHT22;1320;48.128;11.592;2023-04-29T08:31:33;18.70;99.90
2621;DHT22;1320;48.128;11.592;2023-04-29T08:33:59;18.50;99.90
2621;DHT22;1320;48.128;11.592;2023-04-29T08:36:25;18.60;99.90
2621;DHT22;1320;48.128;11.592;2023-04-29T08:38:53;18.60;99.90
2621;DHT22;1320;48.128;11.592;2023-04-29T08:41:19;18.60;99.90
2621;DHT22;1320;48.128;11.592;2023-04-29T08:43:44;18.50;99.90
2621;DHT22;1320;48.128;11.592;2023-04-29T08:46:10;18.70;99.90
2621;DHT22;1320;48.128;11.592;2023-04-29T08:48:37;19.10;99.90
2621;DHT22;1320;48.128;11.592;2023-04-29T08:51:05;19.80;99.90
2621;DHT22;1320;48.128;11.592;2023-04-29T08:53:31;20.40;99.90
2621;DHT22;1320;48.128;11.592;2023-04-29T08:56:00;20.90;99.90
2621;DHT22;1320;48.128;11.592;2023-04-29T08:58:29;21.50;99.90
2621;DHT22;1320;48.128;11.592;2023-04-29T09:00:58;22.20;99.90
2621;DHT22;1320;48.128;11.592;2023-04-29T09:03:46;22.40;99.90
2621;DHT22;1320;48.128;11.592;2023-04-29T09:06:14;22.70;99.90
2621;DHT22;1320;48.128;11.592;2023-04-29T09:08:41;23.00;99.90
2621;DHT22;1320;48.128;11.592;2023-04-29T09:13:36;23.10;99.90
2621;DHT22;1320;48.128;11.592;2023-04-29T09:16:02;23.00;99.90
2621;DHT22;1320;48.128;11.592;2023-04-29T09:18:48;22.60;99.90
2621;DHT22;1320;48.128;11.592;2023-04-29T09:21:25;22.00;99.90
2621;DHT22;1320;48.128;11.592;2023-04-29T09:23:56;21.50;99.90
2621;DHT22;1320;48.128;11.592;2023-04-29T09:26:22;21.30;99.90
2621;DHT22;1320;48.128;11.592;2023-04-29T09:31:31;21.70;99.90
2621;DHT22;1320;48.128;11.592;2023-04-29T09:33:56;21.70;99.90
2621;DHT22;1320;48.128;11.592;2023-04-29T09:39:21;21.40;99.90
2621;DHT22;1320;48.128;11.592;2023-04-29T09:44:20;20.90;99.90
2621;DHT22;1320;48.128;11.592;2023-04-29T09:47:06;20.80;99.90
2621;DHT22;1320;48.128;11.592;2023-04-29T09:49:33;20.70;99.90
2621;DHT22;1320;48.128;11.592;2023-04-29T09:52:05;20.40;99.90
2621;DHT22;1320;48.128;11.592;2023-04-29T09:54:32;20.20;99.90
2621;DHT22;1320;48.128;11.592;2023-04-29T09:56:59;20.40;99.90
2621;DHT22;1320;48.128;11.592;2023-04-29T09:59:27;20.70;99.90
2621;DHT22;1320;48.128;11.592;2023-04-29T10:01:56;21.10;99.90
2621;DHT22;1320;48.128;11.592;2023-04-29T10:04:24;21.50;99.90
2621;DHT22;1320;48.128;11.592;2023-04-29T10:06:51;21.90;99.90
2621;DHT22;1320;48.128;11.592;2023-04-29T10:09:18;22.40;99.90
2621;DHT22;1320;48.128;11.592;2023-04-29T10:11:45;22.80;99.90
2621;DHT22;1320;48.128;11.592;2023-04-29T10:14:21;23.20;99.90
2621;DHT22;1320;48.128;11.592;2023-04-29T10:16:49;23.70;99.30
2621;DHT22;1320;48.128;11.592;2023-04-29T10:24:17;23.70;99.90
2621;DHT22;1320;48.128;11.592;2023-04-29T10:26:46;22.90;99.90
2621;DHT22;1320;48.128;11.592;2023-04-29T10:29:14;22.60;99.90
2621;DHT22;1320;48.128;11.592;2023-04-29T10:31:42;22.30;99.90
2621;DHT22;1320;48.128;11.592;2023-04-29T10:34:10;22.00;99.90
2621;DHT22;1320;48.128;11.592;2023-04-29T10:36:37;21.70;99.90
2621;DHT22;1320;48.128;11.592;2023-04-29T10:39:04;21.50;99.90
2621;DHT22;1320;48.128;11.592;2023-04-29T10:41:43;21.30;99.90
2621;DHT22;1320;48.128;11.592;2023-04-29T10:44:13;21.20;99.90
2621;DHT22;1320;48.128;11.592;2023-04-29T10:46:39;21.20;99.90
2621;DHT22;1320;48.128;11.592;2023-04-29T10:49:06;21.30;99.90
2621;DHT22;1320;48.128;11.592;2023-04-29T10:54:17;22.30;99.90
2621;DHT22;1320;48.128;11.592;2023-04-29T10:56:53;22.80;99.90
2621;DHT22;1320;48.128;11.592;2023-04-29T11:02:09;23.60;99.90
2621;DHT22;1320;48.128;11.592;2023-04-29T11:07:28;23.40;98.00
2621;DHT22;1320;48.128;11.592;2023-04-29T11:09:54;23.00;98.80
2621;DHT22;1320;48.128;11.592;2023-04-29T11:12:20;22.60;99.10
2621;DHT22;1320;48.128;11.592;2023-04-29T11:14:49;22.50;99.50
2621;DHT22;1320;48.128;11.592;2023-04-29T11:17:17;22.40;99.80
2621;DHT22;1320;48.128;11.592;2023-04-29T11:19:51;22.50;99.50
2621;DHT22;1320;48.128;11.592;2023-04-29T11:22:27;22.50;98.60
2621;DHT22;1320;48.128;11.592;2023-04-29T11:25:05;22.50;99.00
2621;DHT22;1320;48.128;11.592;2023-04-29T11:27:33;22.70;99.30
2621;DHT22;1320;48.128;11.592;2023-04-29T11:30:00;22.90;97.80
2621;DHT22;1320;48.128;11.592;2023-04-29T11:32:34;22.90;98.40
2621;DHT22;1320;48.128;11.592;2023-04-29T11:37:34;22.60;97.70
2621;DHT22;1320;48.128;11.592;2023-04-29T11:40:00;22.40;97.60
2621;DHT22;1320;48.128;11.592;2023-04-29T11:42:26;22.30;97.90
2621;DHT22;1320;48.128;11.592;2023-04-29T11:44:56;22.20;98.20
2621;DHT22;1320;48.128;11.592;2023-04-29T11:47:29;22.00;97.90
2621;DHT22;1320;48.128;11.592;2023-04-29T11:50:21;21.80;98.60
2621;DHT22;1320;48.128;11.592;2023-04-29T11:52:47;21.70;98.80
2621;DHT22;1320;48.128;11.592;2023-04-29T11:55:13;21.80;99.10
2621;DHT22;1320;48.128;11.592;2023-04-29T11:57:39;22.00;97.80
2621;DHT22;1320;48.128;11.592;2023-04-29T12:00:08;22.20;96.80
2621;DHT22;1320;48.128;11.592;2023-04-29T12:02:37;22.40;97.00
2621;DHT22;1320;48.128;11.592;2023-04-29T12:05:06;22.40;96.70
2621;DHT22;1320;48.128;11.592;2023-04-29T12:07:37;22.60;96.60
2621;DHT22;1320;48.128;11.592;2023-04-29T12:10:10;22.70;96.40
2621;DHT22;1320;48.128;11.592;2023-04-29T12:12:36;22.80;95.60
2621;DHT22;1320;48.128;11.592;2023-04-29T12:15:06;22.70;96.10
2621;DHT22;1320;48.128;11.592;2023-04-29T12:17:32;22.90;95.90
2621;DHT22;1320;48.128;11.592;2023-04-29T12:19:58;23.00;96.20
2621;DHT22;1320;48.128;11.592;2023-04-29T12:22:33;23.00;95.60
2621;DHT22;1320;48.128;11.592;2023-04-29T12:25:01;23.10;95.10
2621;DHT22;1320;48.128;11.592;2023-04-29T12:27:28;23.10;95.50
2621;DHT22;1320;48.128;11.592;2023-04-29T12:29:55;23.20;94.80
2621;DHT22;1320;48.128;11.592;2023-04-29T12:32:22;23.40;95.00
2621;DHT22;1320;48.128;11.592;2023-04-29T12:34:50;23.40;94.40
2621;DHT22;1320;48.128;11.592;2023-04-29T12:37:17;23.50;93.60
2621;DHT22;1320;48.128;11.592;2023-04-29T12:39:42;23.50;94.10
2621;DHT22;1320;48.128;11.592;2023-04-29T12:42:14;23.50;94.20
2621;DHT22;1320;48.128;11.592;2023-04-29T12:44:47;23.60;94.20
2621;DHT22;1320;48.128;11.592;2023-04-29T12:47:13;23.70;94.30
2621;DHT22;1320;48.128;11.592;2023-04-29T12:49:43;23.90;94.20
2621;DHT22;1320;48.128;11.592;2023-04-29T12:52:09;23.90;93.90
2621;DHT22;1320;48.128;11.592;2023-04-29T12:54:41;23.80;93.90
2621;DHT22;1320;48.128;11.592;2023-04-29T12:57:08;23.80;94.00
2621;DHT22;1320;48.128;11.592;2023-04-29T12:59:34;23.90;93.60
2621;DHT22;1320;48.128;11.592;2023-04-29T13:02:00;23.90;93.10
2621;DHT22;1320;48.128;11.592;2023-04-29T13:04:26;23.90;93.30
2621;DHT22;1320;48.128;11.592;2023-04-29T13:06:52;23.80;94.10
2621;DHT22;1320;48.128;11.592;2023-04-29T13:09:25;23.90;93.40
2621;DHT22;1320;48.128;11.592;2023-04-29T13:11:50;23.90;92.90
2621;DHT22;1320;48.128;11.592;2023-04-29T13:14:16;24.00;92.80
2621;DHT22;1320;48.128;11.592;2023-04-29T13:16:43;24.10;92.40
2621;DHT22;1320;48.128;11.592;2023-04-29T13:19:09;24.10;92.90
2621;DHT22;1320;48.128;11.592;2023-04-29T13:21:35;24.10;92.50
2621;DHT22;1320;48.128;11.592;2023-04-29T13:24:01;24.10;92.10
2621;DHT22;1320;48.128;11.592;2023-04-29T13:26:26;24.30;93.00
2621;DHT22;1320;48.128;11.592;2023-04-29T13:28:52;24.50;92.20
2621;DHT22;1320;48.128;11.592;2023-04-29T13:31:18;24.60;91.30
2621;DHT22;1320;48.128;11.592;2023-04-29T13:33:43;24.60;90.90
2621;DHT22;1320;48.128;11.592;2023-04-29T13:36:09;24.50;90.60
2621;DHT22;1320;48.128;11.592;2023-04-29T13:38:35;24.40;90.20
2621;DHT22;1320;48.128;11.592;2023-04-29T13:41:01;24.20;90.70
2621;DHT22;1320;48.128;11.592;2023-04-29T13:43:26;24.20;91.20
2621;DHT22;1320;48.128;11.592;2023-04-29T13:45:52;24.20;90.90
2621;DHT22;1320;48.128;11.592;2023-04-29T13:48:18;24.10;91.40
2621;DHT22;1320;48.128;11.592;2023-04-29T13:50:44;24.00;91.40
2621;DHT22;1320;48.128;11.592;2023-04-29T13:53:10;24.20;91.30
2621;DHT22;1320;48.128;11.592;2023-04-29T13:55:36;24.40;91.40
2621;DHT22;1320;48.128;11.592;2023-04-29T13:58:02;24.50;90.70
2621;DHT22;1320;48.128;11.592;2023-04-29T14:00:27;24.60;90.50
2621;DHT22;1320;48.128;11.592;2023-04-29T14:02:54;24.70;90.50
2621;DHT22;1320;48.128;11.592;2023-04-29T14:05:19;24.80;90.10
2621;DHT22;1320;48.128;11.592;2023-04-29T14:07:45;24.90;89.30
2621;DHT22;1320;48.128;11.592;2023-04-29T14:10:11;24.90;89.40
2621;DHT22;1320;48.128;11.592;2023-04-29T14:12:36;25.00;89.90
2621;DHT22;1320;48.128;11.592;2023-04-29T14:15:02;25.00;89.40
2621;DHT22;1320;48.128;11.592;2023-04-29T14:17:28;25.10;89.30
2621;DHT22;1320;48.128;11.592;2023-04-29T14:19:54;25.10;89.30
2621;DHT22;1320;48.128;11.592;2023-04-29T14:22:19;25.00;89.20
2621;DHT22;1320;48.128;11.592;2023-04-29T14:24:45;25.10;89.50
2621;DHT22;1320;48.128;11.592;2023-04-29T14:27:11;25.10;90.10
2621;DHT22;1320;48.128;11.592;2023-04-29T14:29:37;24.90;90.50
2621;DHT22;1320;48.128;11.592;2023-04-29T14:32:03;24.70;90.70
2621;DHT22;1320;48.128;11.592;2023-04-29T14:34:28;24.70;90.80
2621;DHT22;1320;48.128;11.592;2023-04-29T14:36:54;25.00;91.00
2621;DHT22;1320;48.128;11.592;2023-04-29T14:39:23;25.20;90.50
2621;DHT22;1320;48.128;11.592;2023-04-29T14:41:50;25.10;90.40
2621;DHT22;1320;48.128;11.592;2023-04-29T14:44:15;24.80;90.40
2621;DHT22;1320;48.128;11.592;2023-04-29T14:46:41;24.60;90.30
2621;DHT22;1320;48.128;11.592;2023-04-29T14:49:07;24.50;90.80
2621;DHT22;1320;48.128;11.592;2023-04-29T14:51:33;24.40;90.70
2621;DHT22;1320;48.128;11.592;2023-04-29T14:53:58;24.50;90.80
2621;DHT22;1320;48.128;11.592;2023-04-29T14:56:24;24.40;91.00
2621;DHT22;1320;48.128;11.592;2023-04-29T14:58:50;24.20;90.70
2621;DHT22;1320;48.128;11.592;2023-04-29T15:01:16;24.10;90.80
2621;DHT22;1320;48.128;11.592;2023-04-29T15:03:41;24.10;90.60
2621;DHT22;1320;48.128;11.592;2023-04-29T15:06:07;23.90;90.40
2621;DHT22;1320;48.128;11.592;2023-04-29T15:08:33;23.60;90.60
2621;DHT22;1320;48.128;11.592;2023-04-29T15:10:58;23.50;90.90
2621;DHT22;1320;48.128;11.592;2023-04-29T15:13:24;23.50;90.80
2621;DHT22;1320;48.128;11.592;2023-04-29T15:15:50;23.60;91.10
2621;DHT22;1320;48.128;11.592;2023-04-29T15:18:16;23.90;90.90
2621;DHT22;1320;48.128;11.592;2023-04-29T15:20:42;24.20;90.10
2621;DHT22;1320;48.128;11.592;2023-04-29T15:23:07;24.40;90.30
2621;DHT22;1320;48.128;11.592;2023-04-29T15:25:33;24.40;90.10
2621;DHT22;1320;48.128;11.592;2023-04-29T15:28:00;24.20;89.90
2621;DHT22;1320;48.128;11.592;2023-04-29T15:30:26;23.80;90.10
2621;DHT22;1320;48.128;11.592;2023-04-29T15:32:55;23.50;90.40
2621;DHT22;1320;48.128;11.592;2023-04-29T15:35:21;23.20;90.70
2621;DHT22;1320;48.128;11.592;2023-04-29T15:37:46;23.00;91.00
2621;DHT22;1320;48.128;11.592;2023-04-29T15:40:12;22.80;91.20
2621;DHT22;1320;48.128;11.592;2023-04-29T15:42:38;22.80;91.20
2621;DHT22;1320;48.128;11.592;2023-04-29T15:45:04;22.70;91.10
2621;DHT22;1320;48.128;11.592;2023-04-29T15:47:33;22.60;91.10
2621;DHT22;1320;48.128;11.592;2023-04-29T15:49:58;22.60;91.30
2621;DHT22;1320;48.128;11.592;2023-04-29T15:52:24;22.70;90.90
2621;DHT22;1320;48.128;11.592;2023-04-29T15:54:50;22.90;91.20
2621;DHT22;1320;48.128;11.592;2023-04-29T15:57:16;23.20;90.70
2621;DHT22;1320;48.128;11.592;2023-04-29T15:59:42;23.40;90.20
2621;DHT22;1320;48.128;11.592;2023-04-29T16:02:07;23.40;89.20
2621;DHT22;1320;48.128;11.592;2023-04-29T16:04:36;23.40;90.00
2621;DHT22;1320;48.128;11.592;2023-04-29T16:07:02;23.30;90.10
2621;DHT22;1320;48.128;11.592;2023-04-29T16:09:33;23.30;90.20
2621;DHT22;1320;48.128;11.592;2023-04-29T16:11:59;23.30;90.40
2621;DHT22;1320;48.128;11.592;2023-04-29T16:14:25;23.40;90.60
2621;DHT22;1320;48.128;11.592;2023-04-29T16:16:51;23.30;90.40
2621;DHT22;1320;48.128;11.592;2023-04-29T16:19:16;23.20;90.40
2621;DHT22;1320;48.128;11.592;2023-04-29T16:21:42;23.00;90.40
2621;DHT22;1320;48.128;11.592;2023-04-29T16:24:13;23.10;90.30
2621;DHT22;1320;48.128;11.592;2023-04-29T16:26:38;23.30;90.40
2621;DHT22;1320;48.128;11.592;2023-04-29T16:29:05;23.50;89.10